createdAt,value
2018-09-20T00:00:47.920Z,3.43
2018-09-20T00:03:17.553Z,4.07
2018-09-20T00:05:47.091Z,3.90
2018-09-20T00:08:16.607Z,4.40
2018-09-20T00:10:45.940Z,3.83
2018-09-20T00:13:15.623Z,4.03
2018-09-20T00:15:45.207Z,4.27
2018-09-20T00:18:14.726Z,4.20
2018-09-20T00:20:44.254Z,4.50
2018-09-20T00:23:13.735Z,4.00
2018-09-20T00:25:43.332Z,3.67
2018-09-20T00:28:12.667Z,3.80
2018-09-20T00:30:42.170Z,4.07
2018-09-20T00:33:11.741Z,3.93
2018-09-20T00:35:41.264Z,4.63
2018-09-20T00:38:10.796Z,3.57
2018-09-20T00:40:40.210Z,4.07
2018-09-20T00:43:09.624Z,3.73
2018-09-20T00:45:38.968Z,4.20
2018-09-20T00:48:08.627Z,4.03
2018-09-20T00:50:38.869Z,4.50
2018-09-20T00:53:08.527Z,4.67
2018-09-20T00:55:38.034Z,3.80
2018-09-20T00:58:07.435Z,3.67
2018-09-20T01:00:37.038Z,4.53
2018-09-20T01:03:06.663Z,4.50
2018-09-20T01:05:36.232Z,4.17
2018-09-20T01:08:05.827Z,4.30
2018-09-20T01:10:36.159Z,4.50
2018-09-20T01:13:05.600Z,4.00
2018-09-20T01:15:35.226Z,3.57
2018-09-20T01:18:04.745Z,3.70
2018-09-20T01:20:34.299Z,3.77
2018-09-20T01:23:03.812Z,3.97
2018-09-20T01:25:33.145Z,4.00
2018-09-20T01:28:02.692Z,3.57
2018-09-20T01:30:32.199Z,4.33
2018-09-20T01:33:01.734Z,4.50
2018-09-20T01:35:31.320Z,4.30
2018-09-20T01:38:00.908Z,4.10
2018-09-20T01:40:30.453Z,3.93
2018-09-20T01:42:59.837Z,3.67
2018-09-20T01:45:29.338Z,4.50
2018-09-20T01:47:58.805Z,3.93
2018-09-20T01:50:28.125Z,3.97
2018-09-20T01:52:59.010Z,4.17
2018-09-20T01:55:28.626Z,3.77
2018-09-20T01:57:58.047Z,3.33
2018-09-20T02:00:27.448Z,3.70
2018-09-20T02:02:57.036Z,4.30
2018-09-20T02:05:26.733Z,4.63
2018-09-20T02:07:56.246Z,4.47
2018-09-20T02:10:25.869Z,4.00
2018-09-20T02:12:55.369Z,3.73
2018-09-20T02:15:24.987Z,4.17
2018-09-20T02:17:54.543Z,3.90
2018-09-20T02:20:23.907Z,5.47
2018-09-20T02:22:53.346Z,3.97
2018-09-20T02:25:22.852Z,3.70
2018-09-20T02:27:52.424Z,3.97
2018-09-20T02:30:22.151Z,4.73
2018-09-20T02:32:51.668Z,3.87
2018-09-20T02:35:21.199Z,4.10
2018-09-20T02:37:50.674Z,4.83
2018-09-20T02:40:20.185Z,4.60
2018-09-20T02:42:49.836Z,4.10
2018-09-20T02:48:15.346Z,4.50
2018-09-20T02:50:44.714Z,3.93
2018-09-20T02:53:15.438Z,4.53
2018-09-20T02:55:45.002Z,4.70
2018-09-20T02:58:14.580Z,4.53
2018-09-20T03:00:44.132Z,4.90
2018-09-20T03:03:13.655Z,4.43
2018-09-20T03:05:42.959Z,4.97
2018-09-20T03:08:12.388Z,4.13
2018-09-20T03:10:41.930Z,4.10
2018-09-20T03:13:11.353Z,4.03
2018-09-20T03:15:40.874Z,5.63
2018-09-20T03:18:10.258Z,5.07
2018-09-20T03:20:39.790Z,4.57
2018-09-20T03:23:09.391Z,4.43
2018-09-20T03:25:38.876Z,4.37
2018-09-20T03:28:08.317Z,4.33
2018-09-20T03:30:38.802Z,4.90
2018-09-20T03:33:08.314Z,4.13
2018-09-20T03:35:37.832Z,4.10
2018-09-20T03:38:07.371Z,5.33
2018-09-20T03:40:36.875Z,4.57
2018-09-20T03:43:06.394Z,4.47
2018-09-20T03:45:35.958Z,4.73
2018-09-20T03:48:05.445Z,4.67
2018-09-20T03:50:34.824Z,4.50
2018-09-20T03:53:04.301Z,4.23
2018-09-20T03:55:33.890Z,4.23
2018-09-20T03:58:03.339Z,4.40
2018-09-20T04:00:32.827Z,4.57
2018-09-20T04:03:02.215Z,4.97
2018-09-20T04:05:31.713Z,4.30
2018-09-20T04:08:01.343Z,4.23
2018-09-20T04:10:30.769Z,4.30
2018-09-20T04:13:00.329Z,4.63
2018-09-20T04:15:29.926Z,4.87
2018-09-20T04:17:59.408Z,4.47
2018-09-20T04:20:28.824Z,5.07
2018-09-20T04:22:58.495Z,5.10
2018-09-20T04:25:28.095Z,4.20
2018-09-20T04:27:57.650Z,5.73
2018-09-20T04:30:27.309Z,4.90
2018-09-20T04:32:56.320Z,4.50
2018-09-20T04:35:25.203Z,4.63
2018-09-20T04:37:54.138Z,4.60
2018-09-20T04:40:23.123Z,5.10
2018-09-20T04:42:52.614Z,5.17
2018-09-20T04:45:21.817Z,5.07
2018-09-20T04:47:51.638Z,5.30
2018-09-20T04:50:20.627Z,5.17
2018-09-20T04:52:50.475Z,4.83
2018-09-20T04:55:20.008Z,4.60
2018-09-20T04:57:49.474Z,5.17
2018-09-20T05:00:18.423Z,4.70
2018-09-20T05:02:48.034Z,5.00
2018-09-20T05:05:17.809Z,4.57
2018-09-20T05:07:47.290Z,5.17
2018-09-20T05:10:16.857Z,4.07
2018-09-20T05:12:45.786Z,5.10
2018-09-20T05:15:14.869Z,5.37
2018-09-20T05:17:43.906Z,5.07
2018-09-20T05:20:12.871Z,5.30
2018-09-20T05:22:41.744Z,5.00
2018-09-20T05:25:10.861Z,6.40
2018-09-20T05:27:39.879Z,4.33
2018-09-20T05:30:09.271Z,5.00
2018-09-20T05:32:38.176Z,5.37
2018-09-20T05:35:07.277Z,4.80
2018-09-20T05:37:36.548Z,5.00
2018-09-20T05:40:06.278Z,4.40
2018-09-20T05:42:36.762Z,5.40
2018-09-20T05:45:06.239Z,5.83
2018-09-20T05:47:35.765Z,4.50
2018-09-20T05:50:05.374Z,4.70
2018-09-20T05:52:34.258Z,4.93
2018-09-20T05:55:03.424Z,5.03
2018-09-20T05:57:32.331Z,4.80
2018-09-20T06:00:01.748Z,5.57
2018-09-20T06:02:31.578Z,4.90
2018-09-20T06:05:01.463Z,4.67
2018-09-20T06:07:30.272Z,5.77
2018-09-20T06:09:59.421Z,4.80
2018-09-20T06:12:28.932Z,5.07
2018-09-20T06:14:58.435Z,4.57
2018-09-20T06:17:27.296Z,5.00
2018-09-20T06:19:56.697Z,5.87
2018-09-20T06:22:25.799Z,5.17
2018-09-20T06:24:57.077Z,5.10
2018-09-20T06:27:26.802Z,5.80
2018-09-20T06:29:55.754Z,5.57
2018-09-20T06:32:25.773Z,5.00
2018-09-20T06:34:55.546Z,5.60
2018-09-20T06:37:25.316Z,6.30
2018-09-20T06:39:54.411Z,5.03
2018-09-20T06:42:23.951Z,5.97
2018-09-20T06:44:53.564Z,6.23
2018-09-20T06:47:22.599Z,7.27
2018-09-20T06:49:51.632Z,5.57
2018-09-20T06:52:20.510Z,6.33
2018-09-20T06:54:49.487Z,7.17
2018-09-20T06:57:19.847Z,5.37
2018-09-20T06:59:49.358Z,5.83
2018-09-20T07:02:19.004Z,5.47
2018-09-20T07:04:48.172Z,6.20
2018-09-20T07:07:17.800Z,6.33
2018-09-20T07:09:46.762Z,6.40
2018-09-20T07:12:15.755Z,5.40
2018-09-20T07:14:44.674Z,5.87
2018-09-20T07:17:13.666Z,5.40
2018-09-20T07:19:42.889Z,5.20
2018-09-20T07:22:12.058Z,5.80
2018-09-20T07:24:41.056Z,5.57
2018-09-20T07:27:09.982Z,5.03
2018-09-20T07:29:39.694Z,5.00
2018-09-20T07:32:09.304Z,5.00
2018-09-20T07:34:38.162Z,5.20
2018-09-20T07:37:07.218Z,5.17
2018-09-20T07:39:36.834Z,5.77
2018-09-20T07:42:06.090Z,4.93
2018-09-20T07:44:35.922Z,5.07
2018-09-20T07:47:05.038Z,5.67
2018-09-20T07:49:34.380Z,5.07
2018-09-20T07:52:03.416Z,5.33
2018-09-20T07:54:32.332Z,5.13
2018-09-20T07:57:01.340Z,5.20
2018-09-20T07:59:30.292Z,5.53
2018-09-20T08:01:59.377Z,5.83
2018-09-20T08:04:28.579Z,6.17
2018-09-20T08:06:57.522Z,5.13
2018-09-20T08:09:26.476Z,4.77
2018-09-20T08:11:55.515Z,5.53
2018-09-20T08:14:24.592Z,4.93
2018-09-20T08:16:53.701Z,4.77
2018-09-20T08:19:23.726Z,5.63
2018-09-20T08:21:52.802Z,4.57
2018-09-20T08:24:21.782Z,5.83
2018-09-20T08:26:51.195Z,4.60
2018-09-20T08:29:20.336Z,4.30
2018-09-20T08:31:49.304Z,4.23
2018-09-20T08:34:18.191Z,4.23
2018-09-20T08:36:47.536Z,4.87
2018-09-20T08:39:16.575Z,4.20
2018-09-20T08:41:45.651Z,4.13
2018-09-20T08:44:15.737Z,3.93
2018-09-20T08:46:44.714Z,3.93
2018-09-20T08:49:13.721Z,4.20
2018-09-20T08:51:42.628Z,4.60
2018-09-20T08:54:11.693Z,4.50
2018-09-20T08:56:40.643Z,3.87
2018-09-20T08:59:10.967Z,3.77
2018-09-20T09:01:40.047Z,4.17
2018-09-20T09:04:09.030Z,3.80
2018-09-20T09:06:38.884Z,4.30
2018-09-20T09:09:09.638Z,4.13
2018-09-20T09:11:39.285Z,3.70
2018-09-20T09:14:08.812Z,3.80
2018-09-20T09:16:37.790Z,6.30
2018-09-20T09:19:06.920Z,3.70
2018-09-20T09:21:36.804Z,3.80
2018-09-20T09:24:05.923Z,3.60
2018-09-20T09:26:34.951Z,3.33
2018-09-20T09:29:04.443Z,3.23
2018-09-20T09:31:33.420Z,3.37
2018-09-20T09:34:03.079Z,3.40
2018-09-20T09:36:33.893Z,3.00
2018-09-20T09:39:03.936Z,3.20
2018-09-20T09:41:32.798Z,3.13
2018-09-20T09:44:01.773Z,3.43
2018-09-20T09:46:30.811Z,2.90
2018-09-20T09:49:00.295Z,2.93
2018-09-20T09:51:29.935Z,3.30
2018-09-20T09:53:59.373Z,3.07
2018-09-20T09:56:28.844Z,3.12
2018-09-20T09:58:57.919Z,3.20
2018-09-20T10:01:27.050Z,2.63
2018-09-20T10:03:57.109Z,2.80
2018-09-20T10:06:26.092Z,2.95
2018-09-20T10:08:55.082Z,3.58
2018-09-20T10:11:25.544Z,2.90
2018-09-20T10:13:54.597Z,2.53
2018-09-20T10:16:24.470Z,3.50
2018-09-20T10:18:53.423Z,2.83
2018-09-20T10:21:22.396Z,3.10
2018-09-20T10:23:51.328Z,2.87
2018-09-20T10:26:20.560Z,2.97
2018-09-20T10:28:49.607Z,2.60
2018-09-20T10:31:18.518Z,3.00
2018-09-20T10:33:47.702Z,3.63
2018-09-20T10:36:16.728Z,3.03
2018-09-20T10:38:45.778Z,3.40
2018-09-20T10:41:15.536Z,3.30
2018-09-20T10:43:44.590Z,2.67
2018-09-20T10:46:13.706Z,3.20
2018-09-20T10:48:42.646Z,3.40
2018-09-20T10:51:11.607Z,3.67
2018-09-20T10:53:40.657Z,2.60
2018-09-20T10:56:10.133Z,2.97
2018-09-20T10:58:39.202Z,2.47
2018-09-20T11:01:08.912Z,3.10
2018-09-20T11:03:38.621Z,3.37
2018-09-20T11:06:07.808Z,2.80
2018-09-20T11:08:37.391Z,2.92
2018-09-20T11:11:06.919Z,2.30
2018-09-20T11:13:36.137Z,3.05
2018-09-20T11:16:05.355Z,2.13
2018-09-20T11:18:34.356Z,3.10
2018-09-20T11:21:03.504Z,2.90
2018-09-20T11:23:32.598Z,2.57
2018-09-20T11:26:01.624Z,2.33
2018-09-20T11:28:30.783Z,2.90
2018-09-20T11:30:59.641Z,3.42
2018-09-20T11:33:28.761Z,2.87
2018-09-20T11:35:57.770Z,2.67
2018-09-20T11:38:26.776Z,2.73
2018-09-20T11:40:55.700Z,3.03
2018-09-20T11:43:24.729Z,2.73
2018-09-20T11:45:53.893Z,2.77
2018-09-20T11:48:23.016Z,2.60
2018-09-20T11:50:52.139Z,2.90
2018-09-20T11:53:21.524Z,2.27
2018-09-20T11:55:50.751Z,3.07
2018-09-20T11:58:20.397Z,2.60
2018-09-20T12:00:49.335Z,2.50
2018-09-20T12:03:18.826Z,2.10
2018-09-20T12:05:48.460Z,2.10
2018-09-20T12:08:18.290Z,2.67
2018-09-20T12:10:47.534Z,2.57
2018-09-20T12:13:16.457Z,2.17
2018-09-20T12:15:45.750Z,2.73
2018-09-20T12:18:14.987Z,2.50
2018-09-20T12:20:44.071Z,2.50
2018-09-20T12:23:13.345Z,2.10
2018-09-20T12:25:42.547Z,1.83
2018-09-20T12:28:11.574Z,2.10
2018-09-20T12:30:40.765Z,2.47
2018-09-20T12:33:10.519Z,2.73
2018-09-20T12:35:39.618Z,2.80
2018-09-20T12:38:09.296Z,2.40
2018-09-20T12:40:38.414Z,1.83
2018-09-20T12:43:07.426Z,2.20
2018-09-20T12:45:36.412Z,2.10
2018-09-20T12:48:05.684Z,2.50
2018-09-20T12:50:34.689Z,2.07
2018-09-20T12:53:03.796Z,2.50
2018-09-20T12:55:32.925Z,2.60
2018-09-20T12:58:02.163Z,2.43
2018-09-20T13:00:32.177Z,2.17
2018-09-20T13:03:01.288Z,2.90
2018-09-20T13:05:31.189Z,2.50
2018-09-20T13:08:00.222Z,2.30
2018-09-20T13:10:29.547Z,2.97
2018-09-20T13:12:58.700Z,2.70
2018-09-20T13:15:27.702Z,2.40
2018-09-20T13:17:57.220Z,2.80
2018-09-20T13:20:26.276Z,2.57
2018-09-20T13:22:55.744Z,2.60
2018-09-20T13:25:24.972Z,2.77
2018-09-20T13:27:54.009Z,2.90
2018-09-20T13:30:23.053Z,3.30
2018-09-20T13:32:52.262Z,2.52
2018-09-20T13:35:21.600Z,2.67
2018-09-20T13:37:50.718Z,2.75
2018-09-20T13:40:19.767Z,2.90
2018-09-20T13:42:49.536Z,2.93
2018-09-20T13:45:19.157Z,2.40
2018-09-20T13:47:48.526Z,2.70
2018-09-20T13:50:18.413Z,2.07
2018-09-20T13:52:47.980Z,2.43
2018-09-20T13:55:17.918Z,3.47
2018-09-20T13:57:47.450Z,3.23
2018-09-20T14:00:17.206Z,2.93
2018-09-20T14:02:46.284Z,2.47
2018-09-20T14:05:15.641Z,2.80
2018-09-20T14:07:44.536Z,2.73
2018-09-20T14:10:14.179Z,2.20
2018-09-20T14:12:44.532Z,2.10
2018-09-20T14:15:13.718Z,2.93
2018-09-20T14:17:42.889Z,2.10
2018-09-20T14:20:12.515Z,2.73
2018-09-20T14:22:41.530Z,2.27
2018-09-20T14:25:10.519Z,2.30
2018-09-20T14:27:40.518Z,2.70
2018-09-20T14:30:10.656Z,2.80
2018-09-20T14:32:39.641Z,2.23
2018-09-20T14:35:09.551Z,2.13
2018-09-20T14:37:38.551Z,2.53
2018-09-20T14:40:07.569Z,2.50
2018-09-20T14:42:36.603Z,2.23
2018-09-20T14:45:06.039Z,2.07
2018-09-20T14:47:35.885Z,1.90
2018-09-20T14:50:04.985Z,2.67
2018-09-20T14:52:35.004Z,2.40
2018-09-20T14:55:04.611Z,1.77
2018-09-20T14:57:34.435Z,1.97
2018-09-20T15:00:03.593Z,2.23
2018-09-20T15:02:32.501Z,2.03
2018-09-20T15:05:01.690Z,2.43
2018-09-20T15:07:31.832Z,2.27
2018-09-20T15:10:00.955Z,2.40
2018-09-20T15:12:30.198Z,2.50
2018-09-20T15:14:59.311Z,2.47
2018-09-20T15:17:28.219Z,2.20
2018-09-20T15:19:57.308Z,2.73
2018-09-20T15:22:26.519Z,2.40
2018-09-20T15:24:55.839Z,2.37
2018-09-20T15:27:24.849Z,2.50
2018-09-20T15:29:54.603Z,2.33
2018-09-20T15:32:23.618Z,2.77
2018-09-20T15:34:52.688Z,2.40
2018-09-20T15:37:21.715Z,2.90
2018-09-20T15:39:50.861Z,2.30
2018-09-20T15:42:21.025Z,2.50
2018-09-20T15:44:50.306Z,2.37
2018-09-20T15:47:19.484Z,2.10
2018-09-20T15:49:49.509Z,2.77
2018-09-20T15:52:18.623Z,2.20
2018-09-20T15:54:47.827Z,2.57
2018-09-20T15:57:17.629Z,2.07
2018-09-20T15:59:46.894Z,2.83
2018-09-20T16:02:15.894Z,1.83
2018-09-20T16:04:44.920Z,2.33
2018-09-20T16:07:14.039Z,2.60
2018-09-20T16:09:46.158Z,2.40
2018-09-20T16:12:15.277Z,2.43
2018-09-20T16:14:44.894Z,2.13
2018-09-20T16:17:14.908Z,1.93
2018-09-20T16:19:43.845Z,2.17
2018-09-20T16:22:12.951Z,2.03
2018-09-20T16:24:41.973Z,2.00
2018-09-20T16:27:11.576Z,2.60
2018-09-20T16:30:06.092Z,2.27
2018-09-20T16:33:48.456Z,2.37
2018-09-20T16:36:26.207Z,2.07
2018-09-20T16:39:01.566Z,2.17
2018-09-20T16:41:36.318Z,2.50
2018-09-20T16:44:05.382Z,2.37
2018-09-20T16:46:34.458Z,1.73
2018-09-20T16:49:05.348Z,2.23
2018-09-20T16:51:34.339Z,2.50
2018-09-20T16:54:04.394Z,2.30
2018-09-20T16:56:34.448Z,1.83
2018-09-20T16:59:03.468Z,1.70
2018-09-20T17:01:32.386Z,2.37
2018-09-20T17:04:02.143Z,2.13
2018-09-20T17:06:31.112Z,2.40
2018-09-20T17:09:00.324Z,2.53
2018-09-20T17:11:29.316Z,2.43
2018-09-20T17:13:58.668Z,2.40
2018-09-20T17:16:28.128Z,2.07
2018-09-20T17:18:57.845Z,2.13
2018-09-20T17:21:26.900Z,2.03
2018-09-20T17:23:55.979Z,5.37
2018-09-20T17:26:25.719Z,2.67
2018-09-20T17:28:54.726Z,2.53
2018-09-20T17:31:24.465Z,2.10
2018-09-20T17:33:53.459Z,2.10
2018-09-20T17:36:22.663Z,2.50
2018-09-20T17:38:52.610Z,2.77
2018-09-20T17:41:24.742Z,1.93
2018-09-20T17:43:56.499Z,2.13
2018-09-20T17:46:25.500Z,2.80
2018-09-20T17:48:55.140Z,2.10
2018-09-20T17:51:24.473Z,3.27
2018-09-20T17:53:54.148Z,1.80
2018-09-20T17:56:23.417Z,2.40
2018-09-20T17:58:53.345Z,1.97
2018-09-20T18:01:22.365Z,2.60
2018-09-20T18:03:52.836Z,2.60
2018-09-20T18:06:21.955Z,2.90
2018-09-20T18:08:50.868Z,3.08
2018-09-20T18:11:20.248Z,2.30
2018-09-20T18:13:49.254Z,2.93
2018-09-20T18:16:18.382Z,2.50
2018-09-20T18:18:47.690Z,3.20
2018-09-20T18:21:16.758Z,2.70
2018-09-20T18:23:45.869Z,2.67
2018-09-20T18:26:15.008Z,2.20
2018-09-20T18:28:45.254Z,2.57
2018-09-20T18:31:14.491Z,1.90
2018-09-20T18:33:43.594Z,2.50
2018-09-20T18:36:12.679Z,2.77
2018-09-20T18:38:41.816Z,2.10
2018-09-20T18:41:10.978Z,2.97
2018-09-20T18:44:02.443Z,2.90
2018-09-20T18:49:42.417Z,2.50
2018-09-20T18:52:30.987Z,2.73
2018-09-20T18:55:00.412Z,2.53
2018-09-20T18:57:29.779Z,2.90
2018-09-20T18:59:59.024Z,3.02
2018-09-20T19:02:28.456Z,3.35
2018-09-20T19:04:57.483Z,2.50
2018-09-20T19:07:27.400Z,2.73
2018-09-20T19:09:56.443Z,2.53
2018-09-20T19:12:25.622Z,2.90
2018-09-20T19:14:54.801Z,2.73
2018-09-20T19:17:24.402Z,3.40
2018-09-20T19:19:53.516Z,2.90
2018-09-20T19:22:22.665Z,2.87
2018-09-20T19:24:51.826Z,2.80
2018-09-20T19:27:21.554Z,3.00
2018-09-20T19:29:50.746Z,3.10
2018-09-20T19:32:19.873Z,2.70
2018-09-20T19:34:49.007Z,3.00
2018-09-20T19:37:18.172Z,2.67
2018-09-20T19:39:47.931Z,3.30
2018-09-20T19:42:17.861Z,2.87
2018-09-20T19:44:46.999Z,3.10
2018-09-20T19:47:17.226Z,2.80
2018-09-20T19:49:46.456Z,2.63
2018-09-20T19:52:16.208Z,3.08
2018-09-20T19:54:45.171Z,3.45
2018-09-20T19:57:14.200Z,3.52
2018-09-20T19:59:43.675Z,3.80
2018-09-20T20:02:13.128Z,3.55
2018-09-20T20:04:42.370Z,3.02
2018-09-20T20:07:11.687Z,3.77
2018-09-20T20:09:40.854Z,4.10
2018-09-20T20:12:09.977Z,3.25
2018-09-20T20:14:39.371Z,3.50
2018-09-20T20:17:08.339Z,3.43
2018-09-20T20:19:37.452Z,3.67
2018-09-20T20:22:07.091Z,3.95
2018-09-20T20:24:36.290Z,3.43
2018-09-20T20:27:05.493Z,2.97
2018-09-20T20:29:34.560Z,3.52
2018-09-20T20:32:03.651Z,3.50
2018-09-20T20:34:34.771Z,3.40
2018-09-20T20:37:04.350Z,3.22
2018-09-20T20:39:33.334Z,3.72
2018-09-20T20:42:02.515Z,3.37
2018-09-20T20:44:32.110Z,2.92
2018-09-20T20:47:01.450Z,2.87
2018-09-20T20:49:30.571Z,3.12
2018-09-20T20:52:00.137Z,3.20
2018-09-20T20:54:29.813Z,3.05
2018-09-20T20:56:59.509Z,3.12
2018-09-20T20:59:28.583Z,3.30
2018-09-20T21:01:57.778Z,3.00
2018-09-20T21:04:27.365Z,2.73
2018-09-20T21:06:57.034Z,2.30
2018-09-20T21:09:26.063Z,2.87
2018-09-20T21:11:55.996Z,3.00
2018-09-20T21:14:26.318Z,2.77
2018-09-20T21:16:55.490Z,3.00
2018-09-20T21:19:24.545Z,3.12
2018-09-20T21:21:54.766Z,3.50
2018-09-20T21:24:23.813Z,3.70
2018-09-20T21:26:52.738Z,2.92
2018-09-20T21:29:21.718Z,3.22
2018-09-20T21:31:51.340Z,3.20
2018-09-20T21:34:20.525Z,3.05
2018-09-20T21:36:50.693Z,3.40
2018-09-20T21:39:20.433Z,2.80
2018-09-20T21:41:49.497Z,3.30
2018-09-20T21:44:20.241Z,2.98
2018-09-20T21:46:49.309Z,3.03
2018-09-20T21:49:18.269Z,3.67
2018-09-20T21:51:47.279Z,3.37
2018-09-20T21:54:16.152Z,3.27
2018-09-20T21:56:45.854Z,2.80
2018-09-20T21:59:14.807Z,3.17
2018-09-20T22:01:48.940Z,2.80
2018-09-20T22:04:19.668Z,2.98
2018-09-20T22:06:48.782Z,2.90
2018-09-20T22:09:17.865Z,3.17
2018-09-20T22:11:47.597Z,3.23
2018-09-20T22:14:18.320Z,3.30
2018-09-20T22:16:47.405Z,3.67
2018-09-20T22:19:16.582Z,3.05
2018-09-20T22:21:46.187Z,3.03
2018-09-20T22:24:15.146Z,3.08
2018-09-20T22:26:45.767Z,3.37
2018-09-20T22:29:16.031Z,3.37
2018-09-20T22:31:45.000Z,3.33
2018-09-20T22:34:14.601Z,3.30
2018-09-20T22:36:44.062Z,3.13
2018-09-20T22:39:13.460Z,3.20
2018-09-20T22:41:42.962Z,3.02
2018-09-20T22:44:12.220Z,3.00
2018-09-20T22:46:41.230Z,3.53
2018-09-20T22:49:10.790Z,3.17
2018-09-20T22:51:39.816Z,3.25
2018-09-20T22:54:09.428Z,3.50
2018-09-20T22:56:40.281Z,2.98
2018-09-20T22:59:10.094Z,3.70
2018-09-20T23:01:39.551Z,3.35
2018-09-20T23:07:24.784Z,3.80
2018-09-20T23:09:53.901Z,3.58
2018-09-20T23:12:24.368Z,3.30
2018-09-20T23:14:54.010Z,3.67
2018-09-20T23:17:23.421Z,3.55
2018-09-20T23:19:53.134Z,3.62
2018-09-20T23:22:22.097Z,3.50
2018-09-20T23:24:51.658Z,3.30
2018-09-20T23:27:21.060Z,3.60
2018-09-20T23:29:50.053Z,3.83
2018-09-20T23:32:19.166Z,3.15
2018-09-20T23:34:54.573Z,2.80
2018-09-20T23:37:24.474Z,3.23
2018-09-20T23:39:56.560Z,3.52
2018-09-20T23:42:25.555Z,3.10
2018-09-20T23:44:56.019Z,3.75
2018-09-20T23:47:24.991Z,3.10
2018-09-20T23:49:54.451Z,2.90
2018-09-20T23:52:23.946Z,2.83
2018-09-20T23:54:53.897Z,3.17
2018-09-20T23:57:22.851Z,3.25
2018-09-20T23:59:52.688Z,3.10
